• Join FlightAware (Why Join?)
  • Login
  • US Flag 
01:12PM EDT


 

Airport Tracker/Info


-or-


 

Live Flight TrackerFlight Track Log ✈ KAP17 ✈ 15-May-2013 ✈ KBOS - KLEB

Flight Track Log - Related Links

Times and Time Zones

All times are in EDT time to prevent confusion due to time zone crossing. See the KAP17 flight status page for this flight to view local times or setup timezone preferences in your user account.

Time Position Orientation Groundspeed Altitude Reporting Facility
EDT Latitude Longitude Course Direction KTS MPH feet Rate Location/Type
12:23PM 42.3667 -71.0167 270° West 104 120 600  Level KA90
12:24PM 42.3667 -71.0667 270° West 110 127 1,900 840 Climbing KA90
12:25PM 42.3833 -71.1000 304° West 131 151 2,700 660 Climbing KA90
12:26PM 42.4167 -71.1000 360° North 137 158 3,300 660 Climbing KA90
12:27PM 42.4500 -71.0667 36° Northeast 136 157 4,100 840 Climbing KA90
12:28PM 42.4833 -71.0667 360° North 140 161 5,000 780 Climbing KA90
12:29PM 42.5333 -71.0833 346° North 144 166 5,800 660 Climbing KA90
12:30PM 42.5667 -71.1000 340° North 146 168 6,500 660 Climbing KA90
12:31PM 42.6000 -71.1333 324° Northwest 134 154 7,300 660 Climbing KA90
12:32PM 42.6333 -71.1500 340° North 130 150 7,800 300 Climbing KA90
12:33PM 42.6667 -71.1833 324° Northwest 143 165 7,900 60 Climbing KA90
12:34PM 42.7000 -71.2167 324° Northwest 157 181 8,000  Climbing KA90
12:35PM 42.7333 -71.2500 324° Northwest 155 178 8,000  Level KA90
12:36PM 42.7667 -71.2833 324° Northwest 152 175 8,000  Level KA90
12:37PM 42.8000 -71.3333 312° West 153 176 8,000  Level KA90
12:38PM 42.8333 -71.3667 324° Northwest 154 177 8,000  Level KA90
12:39PM 42.8667 -71.4000 324° Northwest 156 180 8,000  Level KA90
12:40PM 42.9000 -71.4333 324° Northwest 160 184 8,000 -60 Level KA90
12:41PM 42.9333 -71.4833 312° West 158 182 7,900 -60 Descending KA90
12:42PM 42.9667 -71.5167 324° Northwest 154 177 7,900  Level KA90
12:43PM 43.0000 -71.5500 324° Northwest 156 180 7,900  Level KA90
12:44PM 43.0333 -71.6000 312° West 159 183 8,000  Climbing KA90
12:45PM 43.0394 -71.6133 302° West 173 199 7,900  Descending Boston Center
12:46PM 43.0731 -71.6528 319° Northwest 173 199 8,000  Climbing Boston Center
12:47PM 43.1067 -71.6922 319° Northwest 167 192 8,000  Level Boston Center
12:48PM 43.1400 -71.7317 319° Northwest 161 185 8,000  Level Boston Center
12:49PM 43.1736 -71.7711 319° Northwest 161 185 8,000  Level Boston Center
12:50PM 43.2094 -71.8133 319° Northwest 161 185 8,000  Level Boston Center
12:51PM 43.2450 -71.8531 321° Northwest 161 185 8,000 -240 Level Boston Center
12:52PM 43.2828 -71.8983 319° Northwest 168 193 7,500 -600 Descending Boston Center
12:53PM 43.3267 -71.9492 320° Northwest 168 193 6,700 -660 Descending Boston Center
12:54PM 43.3581 -71.9861 319° Northwest 168 193 6,200 -540 Descending Boston Center